createdAt,value
2019-04-06T00:00:08.716Z,40.00
2019-04-06T00:02:38.050Z,39.73
2019-04-06T00:05:05.820Z,40.70
2019-04-06T00:07:33.209Z,38.65
2019-04-06T00:10:00.645Z,38.90
2019-04-06T00:12:28.157Z,39.08
2019-04-06T00:14:55.621Z,40.43
2019-04-06T00:17:23.111Z,40.45
2019-04-06T00:19:50.579Z,39.80
2019-04-06T00:22:18.185Z,40.00
2019-04-06T00:24:46.031Z,39.58
2019-04-06T00:27:13.501Z,40.50
2019-04-06T00:29:40.966Z,40.98
2019-04-06T00:32:15.821Z,39.42
2019-04-06T00:34:43.698Z,39.85
2019-04-06T00:37:12.224Z,40.12
2019-04-06T00:39:39.631Z,39.73
2019-04-06T00:42:07.100Z,39.00
2019-04-06T00:44:34.562Z,40.67
2019-04-06T00:47:02.050Z,41.73
2019-04-06T00:49:29.614Z,39.92
2019-04-06T00:51:57.049Z,39.58
2019-04-06T00:54:24.545Z,39.90
2019-04-06T00:56:52.002Z,41.15
2019-04-06T00:59:19.564Z,39.23
2019-04-06T01:01:47.009Z,40.63
2019-04-06T01:04:14.656Z,39.75
2019-04-06T01:06:42.238Z,40.90
2019-04-06T01:09:10.038Z,38.95
2019-04-06T01:11:37.479Z,38.70
2019-04-06T01:14:04.950Z,39.95
2019-04-06T01:16:32.396Z,40.60
2019-04-06T01:18:59.851Z,38.78
2019-04-06T01:21:27.329Z,40.23
2019-04-06T01:23:54.854Z,40.30
2019-04-06T01:26:22.292Z,40.80
2019-04-06T01:28:49.752Z,40.05
2019-04-06T01:31:17.382Z,39.60
2019-04-06T01:33:44.866Z,40.12
2019-04-06T01:36:12.325Z,40.38
2019-04-06T01:38:39.877Z,40.78
2019-04-06T01:41:07.340Z,41.20
2019-04-06T01:43:34.909Z,40.55
2019-04-06T01:46:02.654Z,38.63
2019-04-06T01:48:30.210Z,39.55
2019-04-06T01:50:57.638Z,39.53
2019-04-06T01:53:25.145Z,41.08
2019-04-06T01:55:52.591Z,40.00
2019-04-06T01:58:20.040Z,40.50
2019-04-06T02:01:15.840Z,41.83
2019-04-06T02:03:43.595Z,40.15
2019-04-06T02:06:11.282Z,40.55
2019-04-06T02:08:38.943Z,41.85
2019-04-06T02:11:06.504Z,42.73
2019-04-06T02:13:33.988Z,40.63
2019-04-06T02:16:01.436Z,40.83
2019-04-06T02:18:28.894Z,39.98
2019-04-06T02:20:56.335Z,41.18
2019-04-06T02:23:23.772Z,41.50
2019-04-06T02:25:51.352Z,40.17
2019-04-06T02:28:18.800Z,41.08
2019-04-06T02:31:00.634Z,43.55
2019-04-06T02:33:41.177Z,42.45
2019-04-06T02:36:34.197Z,41.68
2019-04-06T02:39:17.453Z,41.50
2019-04-06T02:41:47.996Z,41.80
2019-04-06T02:44:15.462Z,41.88
2019-04-06T02:46:42.906Z,41.98
2019-04-06T02:49:10.339Z,42.50
2019-04-06T02:51:37.984Z,41.05
2019-04-06T02:54:05.493Z,44.25
2019-04-06T02:56:45.100Z,42.20
2019-04-06T02:59:02.355Z,43.17
2019-04-06T03:01:30.245Z,41.73
2019-04-06T03:03:57.698Z,40.63
2019-04-06T03:06:25.133Z,41.65
2019-04-06T03:08:52.565Z,42.70
2019-04-06T03:11:20.014Z,42.45
2019-04-06T03:13:47.656Z,41.92
2019-04-06T03:16:15.448Z,42.10
2019-04-06T03:18:42.902Z,43.05
2019-04-06T03:21:10.359Z,42.95
2019-04-06T03:23:49.539Z,42.78
2019-04-06T03:26:07.069Z,43.95
2019-04-06T03:28:34.516Z,42.43
2019-04-06T03:31:02.052Z,42.88
2019-04-06T03:33:29.763Z,42.67
2019-04-06T03:35:57.229Z,41.13
2019-04-06T03:38:24.865Z,43.05
2019-04-06T03:40:52.401Z,43.45
2019-04-06T03:43:19.883Z,43.55
2019-04-06T03:45:47.469Z,42.35
2019-04-06T03:48:14.897Z,43.33
2019-04-06T03:50:42.318Z,42.48
2019-04-06T03:53:09.770Z,43.60
2019-04-06T03:55:37.210Z,41.35
2019-04-06T03:58:04.600Z,42.58
2019-04-06T04:00:32.031Z,42.60
2019-04-06T04:02:59.422Z,45.12
2019-04-06T04:05:26.879Z,43.08
2019-04-06T04:07:54.632Z,43.65
2019-04-06T04:10:32.912Z,43.33
2019-04-06T04:13:00.302Z,43.85
2019-04-06T04:15:27.573Z,44.55
2019-04-06T04:17:54.850Z,42.90
2019-04-06T04:20:22.227Z,43.25
2019-04-06T04:22:49.500Z,42.58
2019-04-06T04:25:16.958Z,43.68
2019-04-06T04:27:44.446Z,45.75
2019-04-06T04:30:14.917Z,43.48
2019-04-06T04:32:41.100Z,42.80
2019-04-06T04:35:08.507Z,43.35
2019-04-06T04:37:35.903Z,44.13
2019-04-06T04:40:03.999Z,43.20
2019-04-06T04:42:31.364Z,42.90
2019-04-06T04:44:58.755Z,42.58
2019-04-06T04:47:26.173Z,42.95
2019-04-06T04:49:53.570Z,43.30
2019-04-06T04:52:20.982Z,43.50
2019-04-06T04:54:48.604Z,42.58
2019-04-06T04:57:16.047Z,43.17
2019-04-06T04:59:43.523Z,43.30
2019-04-06T05:02:10.966Z,43.90
2019-04-06T05:04:38.380Z,44.60
2019-04-06T05:07:05.802Z,42.15
2019-04-06T05:09:33.322Z,44.25
2019-04-06T05:12:00.718Z,41.70
2019-04-06T05:14:56.283Z,43.52
2019-04-06T05:17:23.683Z,44.50
2019-04-06T05:19:51.300Z,44.35
2019-04-06T05:22:18.787Z,42.48
2019-04-06T05:24:46.182Z,44.30
2019-04-06T05:27:13.620Z,44.13
2019-04-06T05:29:41.049Z,44.55
2019-04-06T05:32:08.391Z,43.50
2019-04-06T05:34:35.827Z,42.27
2019-04-06T05:37:03.225Z,41.63
2019-04-06T05:39:30.640Z,40.52
2019-04-06T05:41:58.064Z,42.45
2019-04-06T05:44:25.478Z,40.88
2019-04-06T05:46:52.949Z,43.25
2019-04-06T05:49:20.475Z,41.85
2019-04-06T05:51:48.018Z,42.98
2019-04-06T05:54:15.576Z,41.58
2019-04-06T05:56:43.004Z,43.02
2019-04-06T05:59:10.913Z,42.58
2019-04-06T06:01:40.533Z,43.78
2019-04-06T06:04:08.822Z,42.98
2019-04-06T06:06:37.207Z,43.80
2019-04-06T06:09:06.074Z,43.30
2019-04-06T06:11:33.501Z,43.95
2019-04-06T06:14:01.238Z,42.17
2019-04-06T06:16:29.071Z,42.43
2019-04-06T06:18:56.901Z,42.73
2019-04-06T06:21:24.366Z,44.05
2019-04-06T06:23:52.335Z,42.43
2019-04-06T06:26:20.322Z,42.58
2019-04-06T06:28:47.931Z,41.83
2019-04-06T06:31:15.447Z,43.40
2019-04-06T06:33:43.109Z,42.55
2019-04-06T06:36:10.724Z,41.92
2019-04-06T06:38:39.285Z,42.88
2019-04-06T06:41:07.042Z,41.45
2019-04-06T06:43:34.647Z,41.28
2019-04-06T06:46:02.670Z,42.15
2019-04-06T06:48:30.179Z,41.10
2019-04-06T06:50:57.596Z,41.30
2019-04-06T06:53:25.080Z,41.45
2019-04-06T06:55:53.441Z,42.88
2019-04-06T06:58:25.658Z,42.08
2019-04-06T07:00:50.630Z,42.65
2019-04-06T07:03:18.075Z,42.00
2019-04-06T07:05:45.749Z,39.85
2019-04-06T07:08:13.184Z,39.85
2019-04-06T07:10:40.671Z,41.75
2019-04-06T07:13:08.072Z,39.67
2019-04-06T07:15:35.530Z,39.03
2019-04-06T07:18:03.067Z,40.35
2019-04-06T07:20:30.463Z,40.30
2019-04-06T07:22:57.886Z,39.88
2019-04-06T07:25:25.308Z,38.25
2019-04-06T07:27:53.012Z,39.90
2019-04-06T07:30:20.449Z,39.27
2019-04-06T07:32:48.131Z,38.42
2019-04-06T07:35:15.531Z,38.08
2019-04-06T07:37:42.959Z,39.25
2019-04-06T07:40:10.459Z,40.83
2019-04-06T07:42:37.861Z,38.58
2019-04-06T07:45:05.651Z,37.65
2019-04-06T07:47:33.047Z,38.83
2019-04-06T07:50:00.450Z,38.65
2019-04-06T07:52:27.894Z,38.38
2019-04-06T07:54:55.509Z,38.08
2019-04-06T07:57:22.920Z,37.78
2019-04-06T07:59:50.354Z,37.88
2019-04-06T08:02:17.907Z,36.65
2019-04-06T08:04:45.307Z,38.75
2019-04-06T08:07:12.725Z,36.45
2019-04-06T08:09:40.523Z,35.73
2019-04-06T08:12:07.919Z,37.55
2019-04-06T08:14:35.345Z,38.98
2019-04-06T08:17:02.960Z,36.28
2019-04-06T08:19:30.450Z,35.92
2019-04-06T08:21:57.903Z,37.30
2019-04-06T08:24:25.274Z,36.65
2019-04-06T08:26:52.659Z,37.55
2019-04-06T08:29:20.247Z,36.73
2019-04-06T08:31:47.828Z,35.70
2019-04-06T08:34:15.227Z,35.80
2019-04-06T08:36:42.662Z,36.30
2019-04-06T08:39:10.366Z,35.78
2019-04-06T08:41:37.806Z,35.78
2019-04-06T08:44:05.197Z,35.05
2019-04-06T08:46:32.614Z,33.58
2019-04-06T08:49:00.010Z,33.63
2019-04-06T08:51:27.601Z,33.70
2019-04-06T08:53:55.024Z,33.83
2019-04-06T08:56:22.423Z,32.35
2019-04-06T08:58:50.028Z,31.85
2019-04-06T09:01:17.932Z,31.82
2019-04-06T09:03:45.327Z,30.27
2019-04-06T09:06:12.722Z,26.85
2019-04-06T09:08:40.171Z,29.90
2019-04-06T09:11:07.588Z,27.22
2019-04-06T09:13:34.982Z,27.52
2019-04-06T09:16:03.927Z,29.45
2019-04-06T09:18:31.599Z,29.02
2019-04-06T09:20:59.315Z,27.05
2019-04-06T09:23:26.779Z,27.95
2019-04-06T09:25:54.174Z,27.20
2019-04-06T09:28:21.629Z,26.87
2019-04-06T09:30:49.131Z,21.90
2019-04-06T09:33:16.558Z,24.72
2019-04-06T09:35:43.970Z,23.73
2019-04-06T09:38:18.223Z,23.12
2019-04-06T09:40:46.932Z,24.10
2019-04-06T09:43:14.286Z,22.48
2019-04-06T09:45:51.966Z,22.55
2019-04-06T09:48:37.830Z,22.20
2019-04-06T09:51:23.931Z,21.68
2019-04-06T09:54:09.998Z,20.88
2019-04-06T09:57:09.402Z,21.85
2019-04-06T09:59:55.252Z,23.27
2019-04-06T10:02:32.266Z,22.40
2019-04-06T10:05:19.183Z,23.57
2019-04-06T10:08:13.364Z,22.27
2019-04-06T10:11:03.047Z,21.40
2019-04-06T10:13:46.734Z,23.10
2019-04-06T10:16:32.547Z,22.07
2019-04-06T10:19:22.505Z,21.97
2019-04-06T10:22:08.199Z,22.90
2019-04-06T10:24:43.311Z,22.05
2019-04-06T10:27:29.495Z,22.07
2019-04-06T10:30:15.099Z,21.10
2019-04-06T10:32:48.754Z,20.30
2019-04-06T10:35:48.029Z,20.95
2019-04-06T10:38:24.849Z,20.17
2019-04-06T10:41:20.558Z,19.23
2019-04-06T10:44:19.553Z,20.10
2019-04-06T10:49:40.537Z,17.32
2019-04-06T10:52:17.816Z,18.02
2019-04-06T10:55:03.400Z,18.42
2019-04-06T10:58:02.622Z,15.40
2019-04-06T11:00:36.862Z,14.90
2019-04-06T11:03:17.591Z,15.05
2019-04-06T11:06:04.662Z,16.62
2019-04-06T11:09:06.996Z,16.77
2019-04-06T11:11:52.555Z,15.20
2019-04-06T11:14:29.191Z,14.83
2019-04-06T11:17:34.640Z,14.18
2019-04-06T11:20:24.122Z,13.25
2019-04-06T11:23:13.814Z,12.65
2019-04-06T11:25:50.574Z,13.70
2019-04-06T11:28:27.140Z,13.65
2019-04-06T11:31:22.845Z,13.55
2019-04-06T11:34:22.581Z,13.22
2019-04-06T11:36:57.814Z,12.40
2019-04-06T11:39:37.583Z,11.30
2019-04-06T11:42:16.918Z,12.60
2019-04-06T11:45:01.095Z,13.15
2019-04-06T11:47:37.952Z,13.53
2019-04-06T11:50:28.469Z,12.90
2019-04-06T11:53:24.425Z,13.10
2019-04-06T11:56:05.404Z,12.50
2019-04-06T11:59:10.420Z,11.55
2019-04-06T12:01:59.954Z,10.90
2019-04-06T12:05:02.304Z,11.15
2019-04-06T12:07:55.114Z,11.08
2019-04-06T12:10:40.379Z,11.03
2019-04-06T12:13:24.867Z,11.85
2019-04-06T12:16:23.670Z,11.03
2019-04-06T12:19:04.015Z,10.23
2019-04-06T12:21:57.394Z,10.90
2019-04-06T12:24:56.692Z,10.28
2019-04-06T12:27:49.672Z,9.98
2019-04-06T12:30:39.784Z,9.80
2019-04-06T12:33:26.863Z,10.40
2019-04-06T12:36:00.859Z,10.53
2019-04-06T12:38:38.766Z,10.72
2019-04-06T12:41:16.556Z,10.40
2019-04-06T12:46:58.198Z,10.03
2019-04-06T12:50:00.002Z,9.90
2019-04-06T12:52:45.687Z,10.28
2019-04-06T12:55:34.099Z,10.68
2019-04-06T13:01:28.355Z,10.70
2019-04-06T13:04:17.953Z,10.60
2019-04-06T13:07:07.369Z,10.58
2019-04-06T13:09:44.681Z,11.22
2019-04-06T13:12:30.247Z,10.60
2019-04-06T13:15:17.175Z,11.20
2019-04-06T13:18:01.609Z,11.25
2019-04-06T13:20:54.424Z,11.28
2019-04-06T13:23:41.334Z,11.48
2019-04-06T13:26:17.422Z,10.70
2019-04-06T13:29:02.894Z,12.43
2019-04-06T13:31:52.594Z,11.73
2019-04-06T13:34:42.119Z,12.33
2019-04-06T13:37:29.084Z,12.15
2019-04-06T13:40:28.385Z,13.83
2019-04-06T13:43:13.898Z,12.20
2019-04-06T13:46:01.369Z,12.73
2019-04-06T13:49:03.481Z,12.20
2019-04-06T13:51:40.694Z,11.90
2019-04-06T13:54:36.830Z,12.25
2019-04-06T13:57:23.801Z,12.25
2019-04-06T14:00:01.128Z,12.18
2019-04-06T14:02:34.884Z,11.93
2019-04-06T14:05:17.994Z,13.15
2019-04-06T14:08:16.741Z,13.13
2019-04-06T14:11:04.379Z,12.55
2019-04-06T14:13:41.152Z,11.85
2019-04-06T14:16:28.083Z,13.08
2019-04-06T14:19:13.582Z,12.78
2019-04-06T14:21:46.505Z,12.75
2019-04-06T14:24:21.919Z,12.80
2019-04-06T14:27:07.802Z,12.78
2019-04-06T14:29:44.650Z,13.70
2019-04-06T14:32:30.218Z,13.50
2019-04-06T14:35:04.890Z,13.60
2019-04-06T14:37:51.802Z,12.88
2019-04-06T14:40:35.730Z,13.48
2019-04-06T14:43:15.345Z,13.28
2019-04-06T14:46:02.443Z,13.00
2019-04-06T14:48:47.867Z,13.25
2019-04-06T14:51:31.626Z,13.10
2019-04-06T14:54:09.008Z,13.28
2019-04-06T14:57:02.498Z,14.25
2019-04-06T14:59:42.482Z,14.15
2019-04-06T15:02:17.185Z,14.78
2019-04-06T15:05:02.690Z,14.10
2019-04-06T15:07:49.604Z,14.03
2019-04-06T15:10:39.618Z,12.78
2019-04-06T15:13:32.680Z,13.35
2019-04-06T15:16:31.759Z,12.78
2019-04-06T15:21:48.116Z,13.78
2019-04-06T15:24:21.252Z,13.35
2019-04-06T15:27:12.383Z,13.28
2019-04-06T15:29:59.586Z,13.38
2019-04-06T15:32:52.822Z,14.47
2019-04-06T15:35:42.282Z,13.98
2019-04-06T15:38:26.044Z,14.15
2019-04-06T15:41:18.784Z,13.18
2019-04-06T15:44:11.504Z,13.78
2019-04-06T15:47:01.021Z,13.65
2019-04-06T15:49:46.144Z,13.48
2019-04-06T15:52:20.922Z,13.22
2019-04-06T15:55:11.049Z,14.05
2019-04-06T15:57:52.198Z,14.10
2019-04-06T16:00:28.838Z,13.28
2019-04-06T16:03:15.765Z,13.72
2019-04-06T16:06:05.961Z,14.45
2019-04-06T16:08:45.624Z,14.18
2019-04-06T16:11:38.855Z,14.15
2019-04-06T16:14:26.089Z,14.40
2019-04-06T16:17:11.303Z,14.53
2019-04-06T16:19:47.277Z,13.85
2019-04-06T16:22:34.226Z,14.33
2019-04-06T16:25:11.117Z,13.65
2019-04-06T16:28:00.631Z,14.30
2019-04-06T16:30:34.865Z,13.98
2019-04-06T16:33:21.823Z,14.13
2019-04-06T16:35:58.682Z,14.07
2019-04-06T16:38:45.606Z,14.50
2019-04-06T16:41:31.309Z,15.40
2019-04-06T16:44:10.169Z,13.95
2019-04-06T16:46:48.521Z,13.72
2019-04-06T16:49:34.039Z,14.43
2019-04-06T16:52:27.704Z,13.60
2019-04-06T16:55:30.169Z,13.62
2019-04-06T16:58:22.803Z,13.93
2019-04-06T17:01:12.906Z,13.88
2019-04-06T17:04:02.612Z,14.90
2019-04-06T17:06:52.300Z,13.28
2019-04-06T17:09:25.820Z,14.23
2019-04-06T17:12:15.722Z,15.13
2019-04-06T17:15:14.514Z,14.18
2019-04-06T17:17:56.418Z,13.90
2019-04-06T17:20:49.605Z,14.53
2019-04-06T17:23:22.159Z,14.00
2019-04-06T17:26:07.136Z,13.98
2019-04-06T17:29:01.506Z,12.98
2019-04-06T17:31:54.494Z,14.00
2019-04-06T17:34:53.926Z,13.93
2019-04-06T17:37:41.980Z,13.60
2019-04-06T17:40:28.869Z,14.68
2019-04-06T17:43:14.521Z,14.53
2019-04-06T17:46:10.782Z,14.33
2019-04-06T17:49:06.686Z,14.63
2019-04-06T17:51:45.464Z,14.40
2019-04-06T17:54:22.871Z,15.85
2019-04-06T17:56:56.377Z,14.00
2019-04-06T17:59:53.314Z,13.88
2019-04-06T18:02:32.298Z,14.40
2019-04-06T18:05:19.418Z,14.87
2019-04-06T18:08:06.348Z,15.15
2019-04-06T18:10:48.146Z,14.23
2019-04-06T18:13:47.869Z,15.00
2019-04-06T18:16:16.670Z,15.75
2019-04-06T18:18:44.145Z,14.45
2019-04-06T18:21:11.578Z,15.13
2019-04-06T18:23:39.302Z,14.98
2019-04-06T18:26:06.799Z,14.28
2019-04-06T18:28:34.208Z,13.85
2019-04-06T18:31:21.142Z,15.20
2019-04-06T18:33:48.587Z,14.43
2019-04-06T18:36:16.002Z,15.55
2019-04-06T18:38:57.906Z,15.85
2019-04-06T18:41:25.733Z,16.37
2019-04-06T18:43:53.504Z,15.30
2019-04-06T18:46:21.143Z,15.53
2019-04-06T18:48:48.591Z,15.68
2019-04-06T18:51:16.004Z,16.05
2019-04-06T18:53:44.552Z,16.80
2019-04-06T18:56:11.966Z,15.85
2019-04-06T18:58:39.904Z,17.45
2019-04-06T19:01:07.400Z,16.17
2019-04-06T19:03:34.858Z,16.62
2019-04-06T19:06:02.509Z,17.30
2019-04-06T19:08:30.031Z,17.17
2019-04-06T19:10:57.423Z,16.82
2019-04-06T19:13:24.915Z,18.17
2019-04-06T19:15:52.384Z,16.93
2019-04-06T19:18:20.187Z,17.37
2019-04-06T19:20:48.210Z,18.50
2019-04-06T19:23:15.704Z,18.15
2019-04-06T19:25:43.286Z,17.87
2019-04-06T19:28:10.989Z,17.90
2019-04-06T19:30:38.451Z,18.42
2019-04-06T19:33:05.919Z,18.17
2019-04-06T19:35:33.312Z,17.65
2019-04-06T19:38:00.707Z,18.98
2019-04-06T19:40:28.199Z,18.75
2019-04-06T19:42:55.650Z,18.75
2019-04-06T19:45:23.056Z,19.70
2019-04-06T19:47:50.610Z,18.60
2019-04-06T19:50:18.067Z,18.73
2019-04-06T19:52:45.828Z,19.27
2019-04-06T19:55:13.759Z,23.32
2019-04-06T19:57:41.554Z,21.55
2019-04-06T20:00:09.160Z,21.55
2019-04-06T20:02:36.898Z,22.17
2019-04-06T20:05:05.210Z,21.70
2019-04-06T20:07:32.467Z,22.15
2019-04-06T20:12:26.770Z,21.95
2019-04-06T20:14:54.203Z,21.70
2019-04-06T20:17:22.431Z,21.93
2019-04-06T20:19:49.971Z,23.18
2019-04-06T20:22:17.959Z,23.25
2019-04-06T20:24:45.628Z,24.37
2019-04-06T20:27:13.028Z,25.37
2019-04-06T20:29:40.797Z,25.90
2019-04-06T20:32:08.450Z,25.62
2019-04-06T20:34:36.122Z,24.27
2019-04-06T20:37:03.619Z,24.72
2019-04-06T20:39:33.424Z,24.77
2019-04-06T20:42:00.882Z,25.12
2019-04-06T20:44:28.378Z,26.02
2019-04-06T20:46:55.822Z,25.80
2019-04-06T20:49:23.194Z,27.60
2019-04-06T20:51:50.627Z,27.07
2019-04-06T20:54:18.134Z,26.40
2019-04-06T20:56:53.842Z,26.70
2019-04-06T20:59:15.076Z,26.77
2019-04-06T21:01:42.804Z,28.12
2019-04-06T21:04:10.385Z,26.93
2019-04-06T21:06:37.871Z,26.75
2019-04-06T21:09:08.715Z,25.35
2019-04-06T21:11:36.647Z,26.10
2019-04-06T21:14:04.336Z,25.72
2019-04-06T21:16:31.736Z,26.00
2019-04-06T21:18:59.134Z,26.82
2019-04-06T21:21:26.977Z,26.48
2019-04-06T21:23:54.354Z,26.57
2019-04-06T21:26:21.787Z,26.55
2019-04-06T21:28:49.684Z,26.10
2019-04-06T21:31:17.774Z,26.80
2019-04-06T21:33:46.511Z,25.60
2019-04-06T21:36:14.293Z,26.33
2019-04-06T21:38:41.682Z,27.50
2019-04-06T21:41:10.530Z,28.12
2019-04-06T21:43:38.028Z,28.35
2019-04-06T21:46:05.617Z,28.32
2019-04-06T21:48:35.106Z,29.75
2019-04-06T21:51:02.939Z,31.00
2019-04-06T21:53:30.803Z,31.75
2019-04-06T21:56:03.369Z,32.03
2019-04-06T21:58:27.493Z,32.78
2019-04-06T22:00:56.744Z,31.95
2019-04-06T22:03:24.188Z,32.93
2019-04-06T22:05:52.005Z,34.98
2019-04-06T22:08:19.427Z,33.75
2019-04-06T22:10:47.405Z,33.33
2019-04-06T22:13:14.905Z,33.92
2019-04-06T22:15:42.410Z,33.53
2019-04-06T22:18:09.735Z,31.80
2019-04-06T22:20:37.159Z,30.95
2019-04-06T22:23:05.098Z,33.40
2019-04-06T22:25:33.390Z,34.50
2019-04-06T22:28:00.837Z,31.97
2019-04-06T22:30:28.269Z,36.25
2019-04-06T22:32:56.099Z,35.30
2019-04-06T22:35:23.574Z,35.55
2019-04-06T22:37:51.456Z,33.98
2019-04-06T22:40:19.807Z,37.38
2019-04-06T22:42:47.809Z,34.15
2019-04-06T22:45:17.496Z,34.58
2019-04-06T22:47:45.192Z,37.17
2019-04-06T22:50:12.826Z,39.08
2019-04-06T22:52:40.228Z,45.45
2019-04-06T22:55:08.545Z,44.15
2019-04-06T22:57:36.117Z,39.88
2019-04-06T23:00:05.550Z,37.83
2019-04-06T23:02:41.302Z,38.58
2019-04-06T23:05:24.451Z,38.25
2019-04-06T23:07:51.862Z,42.23
2019-04-06T23:10:19.266Z,54.03
2019-04-06T23:12:46.676Z,65.42
2019-04-06T23:15:14.091Z,77.53
2019-04-06T23:17:42.048Z,87.22
2019-04-06T23:20:09.543Z,87.60
2019-04-06T23:22:36.910Z,78.22
2019-04-06T23:25:04.346Z,73.62
2019-04-06T23:27:31.800Z,68.07
2019-04-06T23:29:59.913Z,65.83
2019-04-06T23:32:27.371Z,61.83
2019-04-06T23:35:01.192Z,56.08
2019-04-06T23:37:24.309Z,54.25
2019-04-06T23:39:51.818Z,49.25
2019-04-06T23:42:19.446Z,46.60
2019-04-06T23:44:46.944Z,48.20
2019-04-06T23:47:14.725Z,45.28
2019-04-06T23:49:42.211Z,47.27
2019-04-06T23:52:09.622Z,44.38
2019-04-06T23:54:37.084Z,46.00
2019-04-06T23:57:04.697Z,44.73
2019-04-06T23:59:32.663Z,44.25
